Time;durP1;ratioP1;P1;durP2;ratioP2;P2;SDS_P1;SDS_P2;PMS_P1;PMS_P2;Temp;Humidity;BMP_temperature;BMP_pressure;BME280_temperature;BME280_humidity;BME280_pressure;Samples;Min_cycle;Max_cycle;Signal;HPM_P1;HPM_P2
2022/01/02 00:02:24;;;;;;;0.70;0.70;;;;;;;;;;5079069;28;20072;-66
2022/01/02 00:04:52;;;;;;;0.93;0.90;;;;;;;;;;5075439;28;20489;-65
2022/01/02 00:07:19;;;;;;;0.77;0.77;;;;;;;;;;5074935;28;20127;-65
2022/01/02 00:09:46;;;;;;;1.30;0.85;;;;;;;;;;5076306;28;20411;-65
2022/01/02 00:12:17;;;;;;;1.63;1.00;;;;;;;;;;5082263;28;20482;-66
2022/01/02 00:14:47;;;;;;;3.95;1.15;;;;;;;;;;5081764;28;20080;-66
2022/01/02 00:17:22;;;;;;;0.85;0.85;;;;;;;;;;5082649;28;20076;-66
2022/01/02 00:19:55;;;;;;;2.50;1.25;;;;;;;;;;5082555;28;20144;-66
2022/01/02 00:22:29;;;;;;;3.65;1.13;;;;;;;;;;5079028;28;20139;-65
2022/01/02 00:24:56;;;;;;;1.55;1.45;;;;;;;;;;5078295;28;20147;-65
2022/01/02 00:27:22;;;;;;;1.97;1.57;;;;;;;;;;5078780;28;20101;-65
2022/01/02 00:29:49;;;;;;;1.95;1.55;;;;;;;;;;5076859;28;20143;-66
2022/01/02 00:32:23;;;;;;;5.57;2.30;;;;;;;;;;5079723;28;20138;-66
2022/01/02 00:34:51;;;;;;;4.70;2.08;;;;;;;;;;5078138;28;20171;-66
2022/01/02 00:37:18;;;;;;;7.63;2.60;;;;;;;;;;5078889;28;20144;-66
2022/01/02 00:39:44;;;;;;;5.50;2.80;;;;;;;;;;5079278;28;20058;-66
2022/01/02 00:42:14;;;;;;;6.85;3.17;;;;;;;;;;5077738;28;20190;-66
2022/01/02 00:44:59;;;;;;;20.70;3.88;;;;;;;;;;5077229;28;20123;-66
2022/01/02 00:47:32;;;;;;;9.32;4.20;;;;;;;;;;5082106;28;20807;-66
2022/01/02 00:50:04;;;;;;;14.45;5.85;;;;;;;;;;5080808;28;20059;-66
2022/01/02 00:52:33;;;;;;;21.17;6.57;;;;;;;;;;5077456;28;20059;-66
2022/01/02 00:55:01;;;;;;;19.65;7.45;;;;;;;;;;5085119;28;20617;-66
2022/01/02 00:57:33;;;;;;;26.33;8.68;;;;;;;;;;5080797;28;20143;-66
2022/01/02 01:00:08;;;;;;;25.00;9.70;;;;;;;;;;5078757;28;20076;-66
2022/01/02 01:02:37;;;;;;;35.65;10.63;;;;;;;;;;5073389;28;20167;-66
2022/01/02 01:05:05;;;;;;;39.13;13.02;;;;;;;;;;5082517;28;20044;-66
2022/01/02 01:07:32;;;;;;;;;;;;;;;;;;5079429;28;20621;-66
2022/01/02 01:09:59;;;;;;;57.40;13.82;;;;;;;;;;5077560;28;20063;-66
2022/01/02 01:12:26;;;;;;;69.95;16.75;;;;;;;;;;5077732;28;20142;-66
2022/01/02 01:14:52;;;;;;;58.63;16.17;;;;;;;;;;5078242;28;20056;-66
2022/01/02 01:17:19;;;;;;;111.65;17.73;;;;;;;;;;5077112;28;20309;-66
2022/01/02 01:19:45;;;;;;;60.17;15.48;;;;;;;;;;5077826;28;20134;-66
2022/01/02 01:22:12;;;;;;;65.00;17.13;;;;;;;;;;5077710;28;20576;-66
2022/01/02 01:24:39;;;;;;;62.50;18.95;;;;;;;;;;5081147;28;20083;-66
2022/01/02 01:27:07;;;;;;;102.70;21.25;;;;;;;;;;5076327;28;20170;-66
2022/01/02 01:29:35;;;;;;;62.80;19.65;;;;;;;;;;5077873;28;20075;-66
2022/01/02 01:32:03;;;;;;;213.43;26.58;;;;;;;;;;5075383;28;20147;-66
2022/01/02 01:34:30;;;;;;;290.85;32.05;;;;;;;;;;5075925;28;20044;-66
2022/01/02 01:36:56;;;;;;;464.15;35.80;;;;;;;;;;5077162;28;20491;-65
2022/01/02 01:39:29;;;;;;;172.23;23.85;;;;;;;;;;5077604;28;20558;-66
2022/01/02 01:42:06;;;;;;;163.18;25.15;;;;;;;;;;5076724;28;20048;-66
2022/01/02 01:44:51;;;;;;;173.25;26.00;;;;;;;;;;5077049;28;20520;-66
2022/01/02 01:47:18;;;;;;;363.35;34.95;;;;;;;;;;5077403;28;20101;-66
2022/01/02 01:49:45;;;;;;;126.90;22.83;;;;;;;;;;5077423;28;20139;-66
2022/01/02 01:52:11;;;;;;;114.78;22.90;;;;;;;;;;5074713;28;20048;-66
2022/01/02 01:54:37;;;;;;;326.85;31.45;;;;;;;;;;5077494;28;20135;-66
2022/01/02 01:57:05;;;;;;;135.90;22.75;;;;;;;;;;5079502;28;20131;-66
2022/01/02 01:59:31;;;;;;;244.40;26.95;;;;;;;;;;5079949;28;20498;-66
2022/01/02 02:01:58;;;;;;;238.70;28.47;;;;;;;;;;5080089;28;20131;-66
2022/01/02 02:04:25;;;;;;;174.43;24.30;;;;;;;;;;5078279;28;20047;-66
2022/01/02 02:06:54;;;;;;;312.17;28.90;;;;;;;;;;5076077;28;20143;-66
2022/01/02 02:09:24;;;;;;;394.10;35.55;;;;;;;;;;5075793;28;20056;-66
2022/01/02 02:11:58;;;;;;;165.57;24.00;;;;;;;;;;5077141;28;20060;-66
2022/01/02 02:14:25;;;;;;;537.38;41.75;;;;;;;;;;5077896;28;20135;-66
2022/01/02 02:16:51;;;;;;;198.10;26.20;;;;;;;;;;5076672;28;20143;-66
2022/01/02 02:19:18;;;;;;;193.57;27.17;;;;;;;;;;5082315;28;20496;-66
2022/01/02 02:21:44;;;;;;;917.03;58.40;;;;;;;;;;5080334;28;20140;-66
2022/01/02 02:24:13;;;;;;;206.40;26.60;;;;;;;;;;5083664;28;20097;-66
2022/01/02 02:26:48;;;;;;;420.95;34.67;;;;;;;;;;5074445;28;20052;-66
2022/01/02 02:29:14;;;;;;;;;;;;;;;;;;5078119;28;20044;-66
2022/01/02 02:31:41;;;;;;;462.48;34.88;;;;;;;;;;5077580;28;20695;-66
2022/01/02 02:34:14;;;;;;;648.33;43.95;;;;;;;;;;5081521;28;20135;-66
2022/01/02 02:36:40;;;;;;;634.72;43.22;;;;;;;;;;5082652;28;20131;-66
2022/01/02 02:39:07;;;;;;;782.58;50.33;;;;;;;;;;5079182;28;20106;-66
2022/01/02 02:41:35;;;;;;;705.33;45.92;;;;;;;;;;5080877;28;20159;-66
2022/01/02 02:44:09;;;;;;;626.58;43.28;;;;;;;;;;5081045;28;20079;-66
2022/01/02 02:49:21;;;;;;;251.68;31.30;;;;;;;;;;5076585;28;20052;-66
2022/01/02 02:51:54;;;;;;;772.22;50.40;;;;;;;;;;5080034;28;20158;-66
2022/01/02 02:54:22;;;;;;;286.00;30.48;;;;;;;;;;5077597;28;20123;-66
2022/01/02 02:56:57;;;;;;;291.35;30.23;;;;;;;;;;5081774;28;20044;-66
2022/01/02 02:59:25;;;;;;;137.10;24.10;;;;;;;;;;5077814;28;20568;-66
2022/01/02 03:01:52;;;;;;;498.55;38.28;;;;;;;;;;5076708;28;20051;-66
2022/01/02 03:04:19;;;;;;;107.93;21.65;;;;;;;;;;5078196;28;20052;-66
2022/01/02 03:06:46;;;;;;;109.50;23.80;;;;;;;;;;5076872;28;20519;-66
2022/01/02 03:09:13;;;;;;;115.03;23.73;;;;;;;;;;5080349;28;20072;-66
2022/01/02 03:11:40;;;;;;;376.63;35.30;;;;;;;;;;5076320;28;20149;-66
2022/01/02 03:14:08;;;;;;;103.35;22.40;;;;;;;;;;5082327;28;20044;-66
2022/01/02 03:16:41;;;;;;;113.68;23.17;;;;;;;;;;5075831;28;20143;-66
2022/01/02 03:19:07;;;;;;;123.87;24.53;;;;;;;;;;5077345;28;20530;-66
2022/01/02 03:21:34;;;;;;;173.25;26.80;;;;;;;;;;5079594;28;20386;-66
2022/01/02 03:24:06;;;;;;;112.97;23.73;;;;;;;;;;5075122;28;20076;-66
2022/01/02 03:26:33;;;;;;;110.00;22.55;;;;;;;;;;5076647;28;20135;-66
2022/01/02 03:28:59;;;;;;;141.48;23.95;;;;;;;;;;5076248;28;20142;-66
2022/01/02 03:31:28;;;;;;;115.63;22.65;;;;;;;;;;5075377;28;20519;-66
2022/01/02 03:33:54;;;;;;;193.52;27.50;;;;;;;;;;5081026;28;20095;-66
2022/01/02 03:36:21;;;;;;;120.07;23.65;;;;;;;;;;5079528;28;20131;-66
2022/01/02 03:38:47;;;;;;;113.75;23.05;;;;;;;;;;5078122;28;20079;-66
2022/01/02 03:41:14;;;;;;;333.90;33.88;;;;;;;;;;5078982;28;20131;-66
2022/01/02 03:43:40;;;;;;;157.82;23.80;;;;;;;;;;5077784;28;20143;-66
2022/01/02 03:46:13;;;;;;;495.15;41.10;;;;;;;;;;5076212;28;20131;-66
2022/01/02 03:48:39;;;;;;;773.57;50.40;;;;;;;;;;5077663;28;20396;-66
2022/01/02 03:51:06;;;;;;;359.02;35.33;;;;;;;;;;5082013;28;20314;-66
2022/01/02 03:53:32;;;;;;;168.02;27.25;;;;;;;;;;5079740;28;20087;-66
2022/01/02 03:55:59;;;;;;;205.00;25.63;;;;;;;;;;5083553;28;20052;-66
2022/01/02 03:58:25;;;;;;;559.08;43.10;;;;;;;;;;5081854;28;20127;-66
2022/01/02 04:00:54;;;;;;;115.75;23.58;;;;;;;;;;5083506;28;20140;-66
2022/01/02 04:03:20;;;;;;;216.02;29.42;;;;;;;;;;5084692;28;20044;-66
2022/01/02 04:05:46;;;;;;;114.43;23.95;;;;;;;;;;5079442;28;20051;-66
2022/01/02 04:08:13;;;;;;;423.00;39.28;;;;;;;;;;5081343;28;20068;-66
2022/01/02 04:10:39;;;;;;;200.02;30.17;;;;;;;;;;5081517;28;20135;-66
2022/01/02 04:13:06;;;;;;;142.60;26.23;;;;;;;;;;5082004;28;20510;-66
2022/01/02 04:15:33;;;;;;;143.88;25.83;;;;;;;;;;5079670;28;20048;-66
2022/01/02 04:17:59;;;;;;;246.80;32.40;;;;;;;;;;5086425;28;20142;-66
2022/01/02 04:20:26;;;;;;;131.10;25.92;;;;;;;;;;5084295;28;20131;-66
2022/01/02 04:22:59;;;;;;;97.80;23.10;;;;;;;;;;5082087;28;20144;-66
2022/01/02 04:25:25;;;;;;;106.82;24.73;;;;;;;;;;5082093;28;20107;-66
2022/01/02 04:27:51;;;;;;;131.45;25.88;;;;;;;;;;5076637;28;20139;-66
2022/01/02 04:30:19;;;;;;;219.43;31.92;;;;;;;;;;5079926;28;20407;-66
2022/01/02 04:32:48;;;;;;;158.43;27.73;;;;;;;;;;5086630;28;20135;-66
2022/01/02 04:35:15;;;;;;;126.57;26.05;;;;;;;;;;5078239;28;20110;-66
2022/01/02 04:37:42;;;;;;;175.63;28.48;;;;;;;;;;5080994;28;20599;-66
2022/01/02 04:40:09;;;;;;;120.63;24.92;;;;;;;;;;5081569;28;20048;-66
2022/01/02 04:42:36;;;;;;;242.68;32.45;;;;;;;;;;5080333;28;20140;-66
2022/01/02 04:45:09;;;;;;;209.13;33.05;;;;;;;;;;5084352;28;20056;-66
2022/01/02 04:47:35;;;;;;;1074.43;69.65;;;;;;;;;;5080818;28;20564;-66
2022/01/02 04:50:03;;;;;;;643.80;49.10;;;;;;;;;;5082115;28;20131;-66
2022/01/02 04:52:30;;;;;;;308.35;35.15;;;;;;;;;;5078357;28;20480;-66
2022/01/02 04:54:56;;;;;;;211.57;31.65;;;;;;;;;;5082019;28;20128;-66
2022/01/02 04:57:23;;;;;;;332.05;38.92;;;;;;;;;;5081329;28;20574;-66
2022/01/02 04:59:56;;;;;;;211.27;31.25;;;;;;;;;;5081276;28;20072;-66
2022/01/02 05:02:22;;;;;;;258.33;33.75;;;;;;;;;;5079861;28;20076;-66
2022/01/02 05:04:49;;;;;;;408.52;41.47;;;;;;;;;;5082443;28;20048;-66
2022/01/02 05:07:15;;;;;;;482.17;44.78;;;;;;;;;;5080217;28;20580;-66
2022/01/02 05:09:42;;;;;;;621.17;49.37;;;;;;;;;;5082591;28;20053;-66
2022/01/02 05:12:09;;;;;;;220.10;34.70;;;;;;;;;;5080648;28;20094;-66
2022/01/02 05:14:35;;;;;;;218.77;32.53;;;;;;;;;;5081060;28;20178;-66
2022/01/02 05:17:08;;;;;;;470.83;41.15;;;;;;;;;;5078882;28;20048;-66
2022/01/02 05:19:34;;;;;;;763.35;57.80;;;;;;;;;;5077080;28;20135;-66
2022/01/02 05:22:01;;;;;;;181.65;30.33;;;;;;;;;;5078517;28;20052;-66
2022/01/02 05:24:27;;;;;;;242.38;34.30;;;;;;;;;;5077913;28;20171;-66
2022/01/02 05:26:55;;;;;;;517.35;45.45;;;;;;;;;;5081309;28;20605;-66
2022/01/02 05:29:22;;;;;;;925.63;65.75;;;;;;;;;;5081637;28;20087;-66
2022/01/02 05:31:50;;;;;;;329.42;38.60;;;;;;;;;;5080984;28;20499;-66
2022/01/02 05:34:17;;;;;;;323.08;37.60;;;;;;;;;;5080788;28;20440;-66
2022/01/02 05:36:48;;;;;;;300.50;36.08;;;;;;;;;;5080951;28;20132;-66
2022/01/02 05:39:22;;;;;;;540.22;47.13;;;;;;;;;;5077638;28;20084;-66
2022/01/02 05:41:49;;;;;;;350.55;38.35;;;;;;;;;;5075028;28;20180;-66
2022/01/02 05:44:16;;;;;;;173.38;30.83;;;;;;;;;;5076175;28;20139;-66
2022/01/02 05:46:46;;;;;;;338.10;37.42;;;;;;;;;;5077586;28;20128;-66
2022/01/02 05:49:13;;;;;;;;;;;;;;;;;;5078541;28;20052;-66
2022/01/02 05:51:40;;;;;;;245.70;32.97;;;;;;;;;;5076826;28;20024;-66
2022/01/02 05:54:13;;;;;;;383.60;39.08;;;;;;;;;;5077846;28;20151;-66
2022/01/02 05:56:39;;;;;;;300.67;35.10;;;;;;;;;;5078132;28;20127;-66
2022/01/02 05:59:05;;;;;;;270.20;33.63;;;;;;;;;;5056906;28;20052;-66
2022/01/02 06:01:32;;;;;;;525.00;44.47;;;;;;;;;;5076526;28;20873;-66
2022/01/02 06:04:00;;;;;;;263.30;32.23;;;;;;;;;;5074245;28;20514;-66
2022/01/02 06:06:26;;;;;;;205.80;33.05;;;;;;;;;;5075469;28;20769;-66
2022/01/02 06:08:53;;;;;;;440.02;41.47;;;;;;;;;;5082386;28;21657;-66
2022/01/02 06:11:20;;;;;;;460.40;41.83;;;;;;;;;;5080885;28;20048;-66
2022/01/02 06:13:46;;;;;;;341.38;39.88;;;;;;;;;;5079733;28;20083;-66
2022/01/02 06:16:14;;;;;;;732.40;51.53;;;;;;;;;;5076511;28;20102;-66
2022/01/02 06:18:40;;;;;;;250.50;34.22;;;;;;;;;;5079511;28;20408;-66
2022/01/02 06:21:07;;;;;;;321.60;35.63;;;;;;;;;;5073736;28;20136;-65
2022/01/02 06:23:33;;;;;;;586.97;49.15;;;;;;;;;;5079107;28;20127;-66
2022/01/02 06:25:59;;;;;;;391.83;39.58;;;;;;;;;;5079031;28;20059;-66
2022/01/02 06:28:26;;;;;;;375.80;37.42;;;;;;;;;;5074013;28;20123;-66
2022/01/02 06:30:59;;;;;;;171.85;29.73;;;;;;;;;;5079295;28;20131;-66
2022/01/02 06:33:25;;;;;;;996.13;68.95;;;;;;;;;;5076872;28;20052;-66
2022/01/02 06:35:52;;;;;;;475.45;42.45;;;;;;;;;;5076853;28;20048;-66
2022/01/02 06:38:20;;;;;;;288.55;34.90;;;;;;;;;;5074843;28;20135;-66
2022/01/02 06:40:47;;;;;;;291.30;35.25;;;;;;;;;;5076892;28;20123;-66
2022/01/02 06:43:15;;;;;;;727.45;54.78;;;;;;;;;;5080702;28;20131;-66
2022/01/02 06:45:44;;;;;;;541.13;46.42;;;;;;;;;;5078657;28;20075;-65
2022/01/02 06:48:11;;;;;;;217.43;32.97;;;;;;;;;;5079401;28;20055;-65
2022/01/02 06:50:39;;;;;;;291.60;35.78;;;;;;;;;;5078861;28;20118;-65
2022/01/02 06:53:12;;;;;;;270.63;32.50;;;;;;;;;;5080511;28;20127;-65
2022/01/02 06:55:38;;;;;;;316.73;35.83;;;;;;;;;;5083115;28;20090;-65
2022/01/02 06:58:06;;;;;;;512.50;42.40;;;;;;;;;;5078079;28;20149;-65
2022/01/02 07:00:32;;;;;;;;;;;;;;;;;;5077418;28;20091;-65
2022/01/02 07:02:59;;;;;;;552.38;45.40;;;;;;;;;;5080127;28;19971;-66
2022/01/02 07:05:25;;;;;;;431.50;40.87;;;;;;;;;;5080353;28;20053;-65
2022/01/02 07:07:52;;;;;;;655.33;44.17;;;;;;;;;;5075398;28;20054;-66
2022/01/02 07:10:19;;;;;;;785.08;54.13;;;;;;;;;;5076281;28;20086;-65
2022/01/02 07:12:45;;;;;;;484.60;40.72;;;;;;;;;;5079335;28;20079;-65
2022/01/02 07:15:12;;;;;;;361.35;36.17;;;;;;;;;;5075948;28;20144;-65
2022/01/02 07:17:38;;;;;;;424.58;41.15;;;;;;;;;;5077079;28;20043;-65
2022/01/02 07:20:06;;;;;;;390.92;38.50;;;;;;;;;;5076076;28;20423;-66
2022/01/02 07:22:32;;;;;;;608.42;48.30;;;;;;;;;;5076578;28;20056;-66
2022/01/02 07:24:59;;;;;;;306.95;33.17;;;;;;;;;;5075009;28;20068;-65
2022/01/02 07:27:25;;;;;;;307.60;32.30;;;;;;;;;;5077941;28;20056;-65
2022/01/02 07:29:59;;;;;;;754.70;51.47;;;;;;;;;;5077692;28;20087;-65
2022/01/02 07:32:25;;;;;;;279.70;32.10;;;;;;;;;;5077568;28;20106;-65
2022/01/02 07:34:52;;;;;;;921.78;61.90;;;;;;;;;;5076466;28;20044;-66
2022/01/02 07:37:19;;;;;;;559.58;45.53;;;;;;;;;;5075113;28;20123;-65
2022/01/02 07:39:45;;;;;;;494.83;42.23;;;;;;;;;;5075845;28;21383;-65
2022/01/02 07:42:12;;;;;;;745.20;52.25;;;;;;;;;;5076098;28;20388;-65
2022/01/02 07:44:45;;;;;;;524.38;40.65;;;;;;;;;;5073988;28;20131;-65
2022/01/02 07:47:12;;;;;;;285.10;32.17;;;;;;;;;;5075841;28;20052;-65
2022/01/02 07:49:38;;;;;;;311.48;32.45;;;;;;;;;;5074444;28;20232;-65
2022/01/02 07:52:06;;;;;;;229.40;27.25;;;;;;;;;;5075812;28;20052;-65
2022/01/02 07:54:32;;;;;;;132.10;24.10;;;;;;;;;;5075254;28;20131;-65
2022/01/02 07:56:58;;;;;;;278.17;29.95;;;;;;;;;;5074308;28;20052;-65
2022/01/02 07:59:28;;;;;;;207.95;27.45;;;;;;;;;;5075360;28;20533;-65
2022/01/02 08:01:54;;;;;;;211.57;25.83;;;;;;;;;;5077095;28;20055;-65
2022/01/02 08:04:21;;;;;;;181.88;26.88;;;;;;;;;;5074969;28;20037;-65
2022/01/02 08:06:48;;;;;;;213.77;25.35;;;;;;;;;;5074314;28;20521;-65
2022/01/02 08:09:14;;;;;;;160.73;25.98;;;;;;;;;;5074598;28;20411;-65
2022/01/02 08:11:41;;;;;;;216.00;28.95;;;;;;;;;;5073580;28;20482;-65
2022/01/02 08:14:15;;;;;;;170.80;26.13;;;;;;;;;;5073368;28;20507;-65
2022/01/02 08:16:42;;;;;;;177.52;26.50;;;;;;;;;;5073073;28;20541;-65
2022/01/02 08:19:09;;;;;;;425.25;34.67;;;;;;;;;;5077000;28;20049;-65
2022/01/02 08:21:42;;;;;;;252.20;28.08;;;;;;;;;;5080688;28;20699;-65
2022/01/02 08:24:08;;;;;;;155.07;24.65;;;;;;;;;;5077162;28;20083;-65
2022/01/02 08:26:35;;;;;;;478.95;36.22;;;;;;;;;;5080463;28;20084;-66
2022/01/02 08:29:04;;;;;;;286.52;31.92;;;;;;;;;;5075713;28;20157;-65
2022/01/02 08:31:30;;;;;;;272.27;29.05;;;;;;;;;;5076026;28;20091;-65
2022/01/02 08:33:57;;;;;;;158.20;23.47;;;;;;;;;;5075757;28;20131;-65
2022/01/02 08:36:24;;;;;;;188.43;25.83;;;;;;;;;;5078059;28;20160;-65
2022/01/02 08:38:51;;;;;;;127.78;21.95;;;;;;;;;;5081989;28;20127;-65
2022/01/02 08:41:17;;;;;;;169.45;23.63;;;;;;;;;;5083415;28;20044;-65
2022/01/02 08:43:44;;;;;;;173.17;24.17;;;;;;;;;;5083990;28;20105;-65
2022/01/02 08:46:10;;;;;;;377.30;32.72;;;;;;;;;;5081535;28;20128;-65
2022/01/02 08:48:37;;;;;;;126.40;23.52;;;;;;;;;;5077408;28;20051;-66
2022/01/02 08:51:03;;;;;;;220.38;27.63;;;;;;;;;;5083197;28;20559;-66
2022/01/02 08:53:32;;;;;;;177.43;23.73;;;;;;;;;;5083354;28;20075;-66
2022/01/02 08:55:58;;;;;;;115.10;21.20;;;;;;;;;;5084820;28;20056;-66
2022/01/02 08:58:25;;;;;;;192.13;26.17;;;;;;;;;;5081395;28;20091;-66
2022/01/02 09:00:51;;;;;;;138.38;23.77;;;;;;;;;;5080244;28;20462;-65
2022/01/02 09:03:18;;;;;;;174.00;26.17;;;;;;;;;;5079362;28;20457;-66
2022/01/02 09:05:45;;;;;;;169.80;25.45;;;;;;;;;;5082595;28;20126;-66
2022/01/02 09:08:11;;;;;;;210.05;27.85;;;;;;;;;;5078558;28;20156;-66
2022/01/02 09:10:38;;;;;;;201.02;28.45;;;;;;;;;;5077347;28;20571;-66
2022/01/02 09:13:07;;;;;;;240.45;30.35;;;;;;;;;;5078527;28;20084;-66
2022/01/02 09:15:34;;;;;;;;;;;;;;;;;;5062272;28;20147;-66
2022/01/02 09:18:01;;;;;;;171.02;25.08;;;;;;;;;;5078337;28;19924;-66
2022/01/02 09:20:27;;;;;;;;;;;;;;;;;;5082704;28;20083;-66
2022/01/02 09:22:55;;;;;;;328.80;32.25;;;;;;;;;;5083765;28;19923;-66
2022/01/02 09:25:21;;;;;;;208.90;27.80;;;;;;;;;;5081123;28;20098;-66
2022/01/02 09:27:52;;;;;;;176.25;27.27;;;;;;;;;;5082319;28;20044;-66
2022/01/02 09:30:18;;;;;;;137.38;25.85;;;;;;;;;;5081330;28;20052;-65
2022/01/02 09:32:45;;;;;;;186.95;29.25;;;;;;;;;;5080706;28;20139;-65
2022/01/02 09:35:18;;;;;;;168.20;27.90;;;;;;;;;;5079411;28;20076;-65
2022/01/02 09:37:44;;;;;;;154.43;26.90;;;;;;;;;;5081706;28;20131;-65
2022/01/02 09:40:11;;;;;;;138.68;27.58;;;;;;;;;;5084345;28;20083;-66
2022/01/02 09:42:39;;;;;;;189.15;29.25;;;;;;;;;;5075586;28;20159;-66
2022/01/02 09:45:06;;;;;;;250.98;31.60;;;;;;;;;;5081459;28;20136;-66
2022/01/02 09:47:33;;;;;;;;;;;;;;;;;;5083872;28;20079;-66
2022/01/02 09:50:06;;;;;;;131.25;23.95;;;;;;;;;;5079420;28;19920;-66
2022/01/02 09:52:33;;;;;;;193.02;41.80;;;;;;;;;;5081220;28;20082;-65
2022/01/02 09:55:00;;;;;;;221.95;27.88;;;;;;;;;;5074941;28;20800;-65
2022/01/02 09:57:27;;;;;;;146.43;28.83;;;;;;;;;;5081614;28;20054;-66
2022/01/02 09:59:55;;;;;;;165.15;27.35;;;;;;;;;;5084280;28;20139;-66
2022/01/02 10:02:22;;;;;;;201.55;29.25;;;;;;;;;;5080142;28;20139;-66
2022/01/02 10:04:58;;;;;;;171.85;28.50;;;;;;;;;;5082003;28;20508;-65
2022/01/02 10:07:29;;;;;;;173.60;27.42;;;;;;;;;;5060614;28;20054;-65
2022/01/02 10:09:56;;;;;;;153.63;26.77;;;;;;;;;;5081461;28;20143;-65
2022/01/02 10:12:29;;;;;;;175.13;28.40;;;;;;;;;;5079217;28;20151;-65
2022/01/02 10:15:12;;;;;;;192.05;29.30;;;;;;;;;;5083657;28;20135;-65
2022/01/02 10:17:52;;;;;;;165.77;27.48;;;;;;;;;;5078537;28;20074;-65
2022/01/02 10:20:19;;;;;;;144.18;26.75;;;;;;;;;;5077655;28;20044;-65
2022/01/02 10:23:04;;;;;;;131.40;26.23;;;;;;;;;;5072539;28;20139;-66
2022/01/02 10:25:42;;;;;;;131.38;23.52;;;;;;;;;;5079109;28;20040;-65
2022/01/02 10:28:27;;;;;;;125.90;25.27;;;;;;;;;;5074845;28;20087;-65
2022/01/02 10:31:02;;;;;;;149.15;28.45;;;;;;;;;;5079163;28;20068;-65
2022/01/02 10:33:44;;;;;;;124.50;24.33;;;;;;;;;;5081617;28;20056;-66
2022/01/02 10:36:10;;;;;;;128.75;25.90;;;;;;;;;;5078018;28;20476;-65
2022/01/02 10:38:39;;;;;;;136.00;26.33;;;;;;;;;;5080730;28;20079;-66
2022/01/02 10:41:05;;;;;;;137.40;26.48;;;;;;;;;;5081687;28;20500;-65
2022/01/02 10:43:36;;;;;;;147.90;28.27;;;;;;;;;;5080578;28;20171;-65
2022/01/02 10:46:07;;;;;;;126.05;25.00;;;;;;;;;;5080566;28;20060;-65
2022/01/02 10:48:38;;;;;;;112.50;26.23;;;;;;;;;;5079363;28;20059;-65
2022/01/02 10:51:06;;;;;;;132.32;24.60;;;;;;;;;;5079331;28;20164;-65
2022/01/02 10:53:34;;;;;;;143.93;24.75;;;;;;;;;;5079513;28;20448;-65
2022/01/02 10:56:01;;;;;;;162.63;27.75;;;;;;;;;;5080573;28;20087;-65
2022/01/02 10:58:28;;;;;;;;;;;;;;;;;;5080351;28;20044;-65
2022/01/02 11:00:57;;;;;;;155.90;24.50;;;;;;;;;;5081515;28;19970;-65
2022/01/02 11:03:24;;;;;;;112.03;23.88;;;;;;;;;;5074597;28;20051;-65
2022/01/02 11:05:51;;;;;;;;;;;;;;;;;;5080567;28;20043;-65
2022/01/02 11:08:19;;;;;;;124.68;22.70;;;;;;;;;;5075071;28;19951;-65
2022/01/02 11:10:46;;;;;;;121.70;23.30;;;;;;;;;;5076889;28;20048;-65
2022/01/02 11:13:13;;;;;;;156.90;23.75;;;;;;;;;;5078375;28;20131;-66
2022/01/02 11:15:39;;;;;;;147.47;24.67;;;;;;;;;;5080492;28;20156;-65
2022/01/02 11:18:06;;;;;;;139.17;25.30;;;;;;;;;;5076244;28;20060;-65
2022/01/02 11:20:33;;;;;;;176.48;28.13;;;;;;;;;;5078177;28;20275;-65
2022/01/02 11:23:14;;;;;;;154.60;26.58;;;;;;;;;;5061284;28;20455;-65
2022/01/02 11:25:46;;;;;;;131.63;24.20;;;;;;;;;;5077313;28;20048;-65
2022/01/02 11:28:25;;;;;;;150.38;25.25;;;;;;;;;;5078163;28;20080;-65
2022/01/02 11:30:52;;;;;;;178.80;26.80;;;;;;;;;;5077660;28;20566;-65
2022/01/02 11:33:27;;;;;;;149.75;23.98;;;;;;;;;;5078632;28;20480;-65
2022/01/02 11:35:57;;;;;;;155.57;27.98;;;;;;;;;;5081701;28;20500;-65
2022/01/02 11:38:26;;;;;;;181.40;47.05;;;;;;;;;;5074088;28;20134;-65
2022/01/02 11:40:58;;;;;;;152.50;31.70;;;;;;;;;;5078029;28;20058;-65
2022/01/02 11:43:38;;;;;;;166.68;28.52;;;;;;;;;;5074570;28;20135;-65
2022/01/02 11:46:14;;;;;;;170.88;28.33;;;;;;;;;;5078787;28;20052;-65
2022/01/02 11:48:41;;;;;;;187.38;29.98;;;;;;;;;;5076008;28;20063;-65
2022/01/02 11:51:08;;;;;;;189.70;28.38;;;;;;;;;;5077047;28;20140;-65
2022/01/02 11:53:35;;;;;;;199.45;29.42;;;;;;;;;;5079671;28;20134;-65
2022/01/02 11:56:01;;;;;;;;;;;;;;;;;;5079134;28;20125;-65
2022/01/02 11:58:37;;;;;;;153.60;23.65;;;;;;;;;;5078169;28;19965;-65
2022/01/02 12:01:04;;;;;;;180.80;25.77;;;;;;;;;;5077487;28;20113;-65
2022/01/02 12:03:44;;;;;;;143.00;24.20;;;;;;;;;;5081083;28;20048;-65
2022/01/02 12:06:17;;;;;;;160.32;26.80;;;;;;;;;;5074417;28;20048;-65
2022/01/02 12:08:44;;;;;;;204.60;27.23;;;;;;;;;;5077246;28;20493;-65
2022/01/02 12:11:29;;;;;;;180.75;25.40;;;;;;;;;;5078134;28;20495;-65
2022/01/02 12:14:03;;;;;;;177.55;25.50;;;;;;;;;;5081932;28;20106;-65
2022/01/02 12:16:37;;;;;;;187.32;28.38;;;;;;;;;;5081735;28;20051;-65
2022/01/02 12:19:03;;;;;;;184.05;27.20;;;;;;;;;;5085335;28;20131;-65
2022/01/02 12:21:31;;;;;;;175.23;40.53;;;;;;;;;;5083488;28;20098;-65
2022/01/02 12:23:59;;;;;;;210.40;28.58;;;;;;;;;;5079919;28;20147;-65
2022/01/02 12:26:27;;;;;;;190.55;27.58;;;;;;;;;;5082326;28;20138;-65
2022/01/02 12:28:58;;;;;;;216.95;27.52;;;;;;;;;;5079996;28;20147;-65
2022/01/02 12:31:45;;;;;;;283.02;31.83;;;;;;;;;;5077279;28;20079;-65
2022/01/02 12:34:13;;;;;;;144.95;24.75;;;;;;;;;;5082838;28;20126;-66
2022/01/02 12:36:41;;;;;;;195.98;29.65;;;;;;;;;;5077226;28;20048;-65
2022/01/02 12:39:16;;;;;;;189.70;30.15;;;;;;;;;;5082120;28;20071;-65
2022/01/02 12:41:44;;;;;;;211.18;29.63;;;;;;;;;;5080275;28;20155;-66
2022/01/02 12:44:15;;;;;;;187.23;27.63;;;;;;;;;;5083684;28;20510;-66
2022/01/02 12:46:43;;;;;;;193.65;27.33;;;;;;;;;;5085778;28;20170;-66
2022/01/02 12:49:10;;;;;;;235.45;31.08;;;;;;;;;;5076102;28;20060;-66
2022/01/02 12:51:38;;;;;;;208.52;26.83;;;;;;;;;;5078340;28;20134;-66
2022/01/02 12:54:09;;;;;;;260.15;31.77;;;;;;;;;;5078129;28;20083;-66
2022/01/02 12:56:35;;;;;;;220.48;29.85;;;;;;;;;;5078850;28;20094;-66
2022/01/02 12:59:19;;;;;;;185.88;27.30;;;;;;;;;;5076692;28;20049;-65
2022/01/02 13:01:53;;;;;;;182.45;28.13;;;;;;;;;;5064389;28;20139;-66
2022/01/02 13:04:22;;;;;;;210.25;27.17;;;;;;;;;;5081003;28;20491;-65
2022/01/02 13:06:50;;;;;;;183.95;26.13;;;;;;;;;;5078231;28;20063;-66
2022/01/02 13:09:23;;;;;;;218.55;30.23;;;;;;;;;;5078845;28;20075;-66
2022/01/02 13:11:50;;;;;;;275.90;29.58;;;;;;;;;;5078882;28;20128;-66
2022/01/02 13:14:33;;;;;;;258.95;30.42;;;;;;;;;;5072298;28;20048;-66
2022/01/02 13:17:00;;;;;;;217.23;29.48;;;;;;;;;;5076915;28;20157;-66
2022/01/02 13:19:27;;;;;;;;;;;;;;;;;;5082472;28;20109;-65
2022/01/02 13:21:54;;;;;;;169.82;25.05;;;;;;;;;;5074388;28;20367;-65
2022/01/02 13:24:24;;;;;;;247.77;29.27;;;;;;;;;;5081947;28;20718;-66
2022/01/02 13:26:52;;;;;;;197.27;27.48;;;;;;;;;;5080650;28;20049;-66
2022/01/02 13:29:27;;;;;;;195.18;26.75;;;;;;;;;;5082634;28;20082;-65
2022/01/02 13:31:55;;;;;;;154.63;25.13;;;;;;;;;;5078941;28;20087;-65
2022/01/02 13:34:27;;;;;;;140.10;24.17;;;;;;;;;;5079501;28;20462;-66
2022/01/02 13:36:55;;;;;;;244.90;28.83;;;;;;;;;;5077208;28;20140;-66
2022/01/02 13:39:57;;;;;;;184.07;25.83;;;;;;;;;;5080549;28;20601;-66
2022/01/02 13:42:37;;;;;;;264.25;30.63;;;;;;;;;;5025283;28;20054;-65
2022/01/02 13:45:07;;;;;;;155.93;24.73;;;;;;;;;;5074507;28;20147;-66
2022/01/02 13:47:54;;;;;;;207.15;26.08;;;;;;;;;;5080120;28;20054;-66
2022/01/02 13:50:40;;;;;;;144.38;22.38;;;;;;;;;;5082016;28;20134;-66
2022/01/02 13:53:08;;;;;;;141.65;22.20;;;;;;;;;;5076057;28;20135;-66
2022/01/02 13:55:35;;;;;;;182.05;24.90;;;;;;;;;;5078925;28;20127;-66
2022/01/02 13:58:14;;;;;;;129.70;23.58;;;;;;;;;;5075893;28;20479;-66
2022/01/02 14:00:46;;;;;;;164.43;25.08;;;;;;;;;;5077134;28;20140;-66
2022/01/02 14:03:31;;;;;;;157.32;22.75;;;;;;;;;;5058035;28;20059;-66
2022/01/02 14:05:59;;;;;;;122.72;22.75;;;;;;;;;;5056856;28;20131;-66
2022/01/02 14:08:25;;;;;;;112.63;21.33;;;;;;;;;;5055922;28;20059;-66
2022/01/02 14:11:02;;;;;;;131.23;22.33;;;;;;;;;;5060544;28;20120;-66
2022/01/02 14:13:28;;;;;;;104.80;19.92;;;;;;;;;;5055934;28;20137;-66
2022/01/02 14:15:58;;;;;;;105.13;20.13;;;;;;;;;;5056681;28;20084;-66
2022/01/02 14:18:28;;;;;;;95.07;18.45;;;;;;;;;;5058634;28;20057;-66
2022/01/02 14:21:01;;;;;;;79.90;16.92;;;;;;;;;;5057797;28;20087;-66
2022/01/02 14:23:28;;;;;;;78.25;17.58;;;;;;;;;;5058802;28;20083;-66
2022/01/02 14:25:55;;;;;;;78.38;16.45;;;;;;;;;;5057835;28;20143;-66